createdAt,value
2023-05-03T00:02:14.972Z,13.89
2023-05-03T00:04:42.396Z,13.72
2023-05-03T00:07:10.089Z,13.87
2023-05-03T00:09:37.379Z,13.83
2023-05-03T00:12:06.020Z,13.93
2023-05-03T00:14:33.412Z,13.89
2023-05-03T00:17:00.821Z,13.87
2023-05-03T00:19:31.813Z,13.86
2023-05-03T00:22:00.294Z,13.81
2023-05-03T00:24:27.735Z,14.09
2023-05-03T00:26:55.090Z,14.12
2023-05-03T00:29:23.018Z,14.05
2023-05-03T00:31:50.495Z,13.87
2023-05-03T00:34:17.942Z,13.80
2023-05-03T00:36:45.368Z,13.79
2023-05-03T00:39:12.755Z,13.83
2023-05-03T00:41:40.568Z,13.76
2023-05-03T00:44:08.232Z,13.72
2023-05-03T00:46:35.706Z,13.74
2023-05-03T00:49:03.202Z,13.83
2023-05-03T00:51:30.665Z,14.00
2023-05-03T00:53:58.136Z,13.85
2023-05-03T00:56:26.472Z,13.74
2023-05-03T00:58:54.305Z,13.70
2023-05-03T01:01:22.194Z,13.66
2023-05-03T01:03:50.744Z,13.62
2023-05-03T01:06:32.360Z,13.42
2023-05-03T01:09:03.114Z,13.53
2023-05-03T01:11:42.145Z,13.53
2023-05-03T01:14:20.246Z,13.41
2023-05-03T01:16:51.816Z,13.37
2023-05-03T01:19:32.350Z,13.48
2023-05-03T01:22:11.260Z,13.41
2023-05-03T01:24:41.881Z,13.45
2023-05-03T01:27:09.479Z,13.45
2023-05-03T01:29:36.969Z,13.52
2023-05-03T01:32:09.332Z,13.46
2023-05-03T01:34:42.760Z,13.57
2023-05-03T01:37:12.822Z,13.50
2023-05-03T01:40:01.400Z,13.53
2023-05-03T01:42:30.785Z,13.48
2023-05-03T01:44:59.647Z,13.50
2023-05-03T01:47:28.106Z,13.57
2023-05-03T01:49:55.843Z,13.57
2023-05-03T01:52:23.506Z,13.54
2023-05-03T01:54:51.017Z,13.54
2023-05-03T01:57:19.297Z,13.51
2023-05-03T01:59:46.680Z,13.43
2023-05-03T02:02:14.030Z,13.56
2023-05-03T02:04:41.710Z,13.52
2023-05-03T02:07:09.438Z,13.36
2023-05-03T02:09:36.850Z,13.45
2023-05-03T02:12:04.394Z,13.36
2023-05-03T02:14:33.118Z,13.41
2023-05-03T02:17:00.808Z,13.29
2023-05-03T02:19:28.314Z,13.32
2023-05-03T02:21:56.807Z,13.22
2023-05-03T02:24:24.331Z,13.45
2023-05-03T02:26:51.905Z,13.44
2023-05-03T02:29:19.245Z,13.50
2023-05-03T02:31:47.018Z,13.43
2023-05-03T02:34:14.478Z,13.41
2023-05-03T02:36:41.972Z,13.35
2023-05-03T02:39:09.989Z,13.34
2023-05-03T02:41:37.373Z,13.39
2023-05-03T02:44:05.154Z,13.31
2023-05-03T02:46:32.807Z,13.16
2023-05-03T02:49:00.381Z,13.33
2023-05-03T02:51:27.746Z,13.28
2023-05-03T02:53:55.221Z,13.21
2023-05-03T02:56:22.740Z,13.16
2023-05-03T02:58:50.153Z,13.36
2023-05-03T03:01:17.596Z,13.31
2023-05-03T03:03:45.519Z,13.29
2023-05-03T03:06:13.000Z,13.31
2023-05-03T03:08:40.371Z,13.23
2023-05-03T03:11:08.981Z,13.31
2023-05-03T03:13:39.693Z,13.31
2023-05-03T03:16:08.291Z,13.21
2023-05-03T03:18:37.019Z,13.17
2023-05-03T03:21:04.696Z,13.25
2023-05-03T03:23:33.486Z,13.11
2023-05-03T03:26:01.334Z,13.16
2023-05-03T03:28:28.791Z,13.21
2023-05-03T03:30:59.420Z,13.03
2023-05-03T03:33:26.820Z,13.10
2023-05-03T03:35:59.714Z,13.08
2023-05-03T03:38:31.676Z,13.14
2023-05-03T03:41:03.878Z,13.04
2023-05-03T03:43:31.298Z,13.08
2023-05-03T03:45:59.975Z,13.09
2023-05-03T03:48:27.402Z,13.10
2023-05-03T03:50:54.943Z,13.06
2023-05-03T03:53:26.968Z,13.13
2023-05-03T03:55:54.559Z,13.14
2023-05-03T03:58:21.935Z,13.24
2023-05-03T04:00:49.685Z,13.09
2023-05-03T04:03:20.421Z,13.05
2023-05-03T04:05:50.691Z,13.14
2023-05-03T04:08:20.395Z,13.20
2023-05-03T04:10:47.977Z,13.13
2023-05-03T04:13:15.379Z,13.05
2023-05-03T04:15:42.752Z,13.17
2023-05-03T04:18:10.173Z,13.15
2023-05-03T04:20:39.951Z,13.03
2023-05-03T04:23:09.356Z,13.13
2023-05-03T04:25:37.167Z,13.15
2023-05-03T04:28:11.749Z,13.26
2023-05-03T04:30:44.582Z,13.21
2023-05-03T04:33:13.927Z,13.16
2023-05-03T04:35:42.141Z,13.15
2023-05-03T04:38:13.303Z,13.25
2023-05-03T04:40:41.284Z,13.30
2023-05-03T04:43:11.157Z,13.26
2023-05-03T04:45:42.300Z,13.18
2023-05-03T04:48:13.953Z,13.22
2023-05-03T04:50:41.533Z,13.19
2023-05-03T04:53:10.884Z,13.21
2023-05-03T04:55:42.285Z,13.11
2023-05-03T04:58:10.518Z,13.20
2023-05-03T05:00:40.012Z,13.07
2023-05-03T05:03:13.228Z,13.23
2023-05-03T05:05:40.804Z,13.23
2023-05-03T05:08:10.541Z,13.24
2023-05-03T05:10:43.642Z,13.22
2023-05-03T05:13:15.632Z,13.20
2023-05-03T05:15:43.551Z,13.20
2023-05-03T05:18:12.826Z,13.22
2023-05-03T05:20:41.160Z,13.20
2023-05-03T05:23:08.999Z,13.25
2023-05-03T05:25:36.965Z,13.35
2023-05-03T05:28:05.140Z,13.26
2023-05-03T05:30:33.606Z,13.31
2023-05-03T05:33:03.332Z,13.32
2023-05-03T05:35:33.423Z,13.32
2023-05-03T05:38:00.795Z,13.37
2023-05-03T05:40:29.583Z,13.38
2023-05-03T05:42:58.687Z,13.41
2023-05-03T05:45:27.793Z,13.45
2023-05-03T05:47:57.157Z,13.50
2023-05-03T05:50:24.566Z,13.53
2023-05-03T05:52:57.467Z,13.61
2023-05-03T05:55:28.263Z,13.55
2023-05-03T05:57:56.911Z,13.59
2023-05-03T06:00:30.288Z,13.59
2023-05-03T06:02:57.775Z,13.61
2023-05-03T06:05:25.515Z,13.63
2023-05-03T06:07:54.297Z,13.66
2023-05-03T06:10:21.662Z,13.71
2023-05-03T06:12:53.122Z,13.72
2023-05-03T06:15:24.443Z,13.81
2023-05-03T06:17:52.073Z,13.80
2023-05-03T06:20:19.570Z,13.81
2023-05-03T06:22:48.846Z,13.82
2023-05-03T06:25:18.185Z,13.98
2023-05-03T06:27:48.874Z,13.99
2023-05-03T06:30:18.209Z,13.96
2023-05-03T06:32:47.694Z,13.97
2023-05-03T06:35:15.762Z,13.99
2023-05-03T06:37:43.848Z,14.01
2023-05-03T06:40:11.652Z,14.01
2023-05-03T06:42:39.147Z,14.01
2023-05-03T06:45:15.925Z,14.06
2023-05-03T06:47:43.448Z,14.12
2023-05-03T06:50:11.247Z,14.10
2023-05-03T06:52:38.817Z,14.06
2023-05-03T06:55:07.159Z,14.13
2023-05-03T06:57:35.858Z,14.16
2023-05-03T07:00:07.328Z,14.12
2023-05-03T07:02:35.230Z,14.19
2023-05-03T07:05:03.180Z,14.16
2023-05-03T07:07:30.981Z,14.21
2023-05-03T07:09:58.421Z,14.35
2023-05-03T07:12:28.245Z,14.41
2023-05-03T07:14:56.078Z,14.43
2023-05-03T07:17:24.511Z,14.42
2023-05-03T07:19:52.946Z,14.43
2023-05-03T07:22:26.631Z,14.65
2023-05-03T07:24:54.935Z,14.64
2023-05-03T07:27:22.762Z,14.66
2023-05-03T07:29:50.458Z,14.74
2023-05-03T07:32:17.980Z,14.80
2023-05-03T07:34:45.703Z,14.92
2023-05-03T07:37:13.045Z,14.93
2023-05-03T07:39:42.146Z,14.92
2023-05-03T07:42:10.103Z,15.02
2023-05-03T07:44:37.451Z,15.09
2023-05-03T07:47:04.861Z,15.22
2023-05-03T07:49:35.720Z,15.36
2023-05-03T07:52:03.254Z,15.42
2023-05-03T07:54:30.599Z,15.49
2023-05-03T07:56:57.977Z,15.52
2023-05-03T07:59:25.397Z,15.63
2023-05-03T08:01:52.782Z,15.75
2023-05-03T08:04:20.352Z,15.83
2023-05-03T08:06:48.058Z,15.93
2023-05-03T08:09:15.783Z,15.92
2023-05-03T08:11:44.397Z,16.02
2023-05-03T08:14:12.261Z,16.06
2023-05-03T08:16:40.081Z,16.15
2023-05-03T08:19:08.142Z,16.24
2023-05-03T08:21:35.684Z,16.41
2023-05-03T08:24:06.041Z,16.67
2023-05-03T08:26:33.448Z,16.95
2023-05-03T08:29:03.442Z,17.01
2023-05-03T08:31:31.416Z,17.17
2023-05-03T08:33:58.978Z,17.39
2023-05-03T08:36:26.451Z,17.59
2023-05-03T08:38:53.821Z,17.87
2023-05-03T08:41:30.740Z,17.89
2023-05-03T08:43:59.870Z,17.84
2023-05-03T08:46:28.738Z,17.67
2023-05-03T08:48:57.248Z,17.82
2023-05-03T08:51:25.219Z,18.10
2023-05-03T08:53:52.654Z,18.18
2023-05-03T08:56:33.072Z,18.60
2023-05-03T08:59:08.551Z,18.94
2023-05-03T09:01:40.533Z,20.00
2023-05-03T09:04:08.968Z,19.04
2023-05-03T09:06:37.435Z,18.70
2023-05-03T09:09:07.556Z,18.76
2023-05-03T09:11:37.324Z,18.88
2023-05-03T09:14:23.074Z,18.70
2023-05-03T09:16:50.519Z,18.77
2023-05-03T09:19:17.882Z,19.04
2023-05-03T09:21:49.521Z,19.48
2023-05-03T09:24:21.919Z,19.82
2023-05-03T09:26:51.158Z,19.94
2023-05-03T09:29:34.229Z,19.93
2023-05-03T09:32:08.778Z,19.96
2023-05-03T09:34:37.149Z,20.06
2023-05-03T09:37:04.750Z,20.11
2023-05-03T09:39:32.568Z,20.31
2023-05-03T09:42:10.601Z,20.20
2023-05-03T09:44:48.830Z,19.75
2023-05-03T09:47:16.562Z,19.80
2023-05-03T09:49:44.666Z,19.50
2023-05-03T09:52:12.228Z,19.67
2023-05-03T09:54:39.876Z,19.87
2023-05-03T09:57:08.406Z,19.88
2023-05-03T09:59:37.806Z,19.45
2023-05-03T10:02:07.778Z,19.03
2023-05-03T10:05:23.570Z,18.81
2023-05-03T10:07:52.842Z,18.78
2023-05-03T10:10:21.451Z,19.01
2023-05-03T10:12:49.551Z,19.20
2023-05-03T10:15:19.700Z,19.27
2023-05-03T10:17:52.982Z,19.46
2023-05-03T10:20:23.851Z,19.33
2023-05-03T10:23:06.627Z,19.60
2023-05-03T10:25:36.147Z,19.36
2023-05-03T10:28:05.972Z,19.55
2023-05-03T10:30:35.373Z,19.51
2023-05-03T10:33:11.577Z,19.53
2023-05-03T10:35:48.995Z,19.51
2023-05-03T10:38:20.074Z,19.52
2023-05-03T10:40:47.695Z,19.53
2023-05-03T10:43:42.131Z,19.58
2023-05-03T10:46:30.844Z,19.57
2023-05-03T10:49:18.700Z,19.66
2023-05-03T10:51:46.515Z,19.59
2023-05-03T10:54:14.040Z,19.87
2023-05-03T10:56:48.358Z,20.17
2023-05-03T10:59:15.953Z,20.09
2023-05-03T11:01:46.702Z,20.13
2023-05-03T11:04:23.321Z,20.03
2023-05-03T11:06:52.303Z,19.97
2023-05-03T11:09:19.905Z,19.91
2023-05-03T11:11:47.199Z,19.88
2023-05-03T11:14:14.618Z,19.82
2023-05-03T11:16:48.167Z,19.76
2023-05-03T11:19:16.170Z,19.74
2023-05-03T11:21:45.281Z,19.76
2023-05-03T11:24:13.613Z,19.82
2023-05-03T11:26:41.225Z,19.98
2023-05-03T11:29:13.232Z,20.01
2023-05-03T11:31:43.264Z,20.03
2023-05-03T11:34:12.298Z,19.93
2023-05-03T11:36:41.899Z,19.78
2023-05-03T11:39:09.638Z,19.53
2023-05-03T11:41:37.205Z,19.54
2023-05-03T11:44:16.123Z,19.53
2023-05-03T11:46:46.939Z,19.36
2023-05-03T11:49:18.880Z,19.35
2023-05-03T11:51:49.378Z,19.34
2023-05-03T11:54:24.996Z,19.48
2023-05-03T11:56:57.585Z,19.76
2023-05-03T11:59:38.943Z,19.76
2023-05-03T12:02:08.182Z,19.89
2023-05-03T12:04:41.650Z,19.89
2023-05-03T12:07:12.045Z,19.92
2023-05-03T12:09:41.991Z,20.06
2023-05-03T12:12:20.769Z,20.09
2023-05-03T12:14:59.750Z,19.87
2023-05-03T12:17:39.263Z,20.17
2023-05-03T12:22:58.106Z,20.21
2023-05-03T12:25:28.619Z,20.12
2023-05-03T12:30:36.013Z,19.81
2023-05-03T12:33:04.773Z,19.93
2023-05-03T12:35:34.146Z,20.07
2023-05-03T12:38:04.480Z,20.24
2023-05-03T12:40:34.350Z,19.94
2023-05-03T12:43:03.410Z,19.91
2023-05-03T12:45:34.414Z,19.76
2023-05-03T12:48:03.292Z,19.80
2023-05-03T12:50:31.994Z,19.89
2023-05-03T12:53:02.691Z,20.01
2023-05-03T12:55:35.474Z,19.91
2023-05-03T12:58:36.854Z,19.94
2023-05-03T13:03:32.385Z,19.96
2023-05-03T13:06:12.616Z,19.91
2023-05-03T13:08:48.324Z,19.85
2023-05-03T13:11:19.199Z,19.73
2023-05-03T13:13:47.058Z,19.63
2023-05-03T13:16:14.684Z,19.55
2023-05-03T13:18:43.051Z,19.73
2023-05-03T13:21:31.580Z,19.70
2023-05-03T13:23:58.988Z,19.70
2023-05-03T13:26:26.380Z,19.52
2023-05-03T13:28:53.716Z,19.51
2023-05-03T13:31:21.069Z,19.56
2023-05-03T13:33:49.226Z,19.50
2023-05-03T13:36:16.612Z,19.52
2023-05-03T13:38:43.930Z,19.40
2023-05-03T13:41:12.422Z,19.55
2023-05-03T13:43:42.056Z,19.57
2023-05-03T13:46:09.635Z,19.55
2023-05-03T13:48:37.026Z,19.56
2023-05-03T13:51:14.078Z,19.54
2023-05-03T13:53:41.628Z,19.52
2023-05-03T13:56:09.040Z,19.52
2023-05-03T13:58:37.263Z,19.46
2023-05-03T14:01:04.582Z,19.47
2023-05-03T14:03:33.987Z,19.41
2023-05-03T14:06:08.591Z,19.54
2023-05-03T14:08:36.018Z,19.68
2023-05-03T14:11:06.152Z,19.67
2023-05-03T14:13:43.638Z,19.60
2023-05-03T14:16:35.561Z,19.68
2023-05-03T14:19:10.744Z,19.64
2023-05-03T14:21:38.656Z,19.66
2023-05-03T14:24:06.870Z,19.85
2023-05-03T14:26:34.447Z,19.82
2023-05-03T14:29:02.090Z,19.75
2023-05-03T14:31:30.458Z,19.68
2023-05-03T14:33:59.334Z,19.73
2023-05-03T14:36:34.866Z,19.36
2023-05-03T14:39:04.237Z,19.26
2023-05-03T14:41:36.881Z,19.04
2023-05-03T14:44:04.363Z,19.02
2023-05-03T14:46:31.803Z,19.04
2023-05-03T14:48:59.817Z,19.01
2023-05-03T14:51:27.967Z,18.87
2023-05-03T14:53:55.380Z,18.93
2023-05-03T14:56:22.842Z,18.93
2023-05-03T14:58:50.464Z,19.01
2023-05-03T15:01:19.812Z,19.03
2023-05-03T15:03:47.493Z,18.91
2023-05-03T15:06:15.458Z,18.83
2023-05-03T15:08:43.021Z,18.84
2023-05-03T15:11:10.524Z,18.79
2023-05-03T15:13:37.989Z,18.80
2023-05-03T15:16:05.688Z,18.67
2023-05-03T15:18:33.063Z,18.49
2023-05-03T15:21:00.642Z,18.56
2023-05-03T15:23:28.339Z,18.44
2023-05-03T15:25:55.733Z,18.46
2023-05-03T15:28:23.121Z,18.71
2023-05-03T15:30:50.930Z,18.60
2023-05-03T15:33:18.475Z,18.46
2023-05-03T15:35:46.381Z,18.67
2023-05-03T15:38:13.756Z,18.77
2023-05-03T15:40:41.260Z,18.92
2023-05-03T15:43:08.786Z,18.94
2023-05-03T15:45:36.128Z,19.13
2023-05-03T15:48:04.702Z,19.20
2023-05-03T15:50:32.065Z,18.87
2023-05-03T15:52:59.342Z,18.71
2023-05-03T15:55:26.955Z,18.73
2023-05-03T15:57:57.227Z,18.63
2023-05-03T16:00:25.665Z,18.45
2023-05-03T16:02:53.197Z,18.62
2023-05-03T16:05:20.838Z,18.63
2023-05-03T16:07:55.176Z,18.45
2023-05-03T16:10:24.903Z,18.34
2023-05-03T16:12:52.714Z,18.33
2023-05-03T16:15:20.114Z,18.27
2023-05-03T16:17:48.346Z,18.26
2023-05-03T16:20:15.856Z,18.28
2023-05-03T16:22:43.565Z,18.27
2023-05-03T16:25:11.441Z,18.39
2023-05-03T16:27:42.732Z,18.33
2023-05-03T16:30:10.569Z,18.24
2023-05-03T16:32:38.002Z,18.19
2023-05-03T16:35:05.713Z,18.35
2023-05-03T16:37:36.093Z,18.32
2023-05-03T16:40:13.076Z,18.37
2023-05-03T16:42:42.373Z,18.36
2023-05-03T16:45:10.909Z,18.47
2023-05-03T16:47:38.420Z,18.55
2023-05-03T16:50:09.692Z,18.41
2023-05-03T16:52:43.727Z,18.39
2023-05-03T16:55:14.508Z,18.32
2023-05-03T16:57:42.268Z,18.27
2023-05-03T17:00:11.220Z,18.28
2023-05-03T17:02:39.814Z,18.34
2023-05-03T17:05:08.318Z,18.21
2023-05-03T17:07:35.828Z,18.22
2023-05-03T17:10:04.300Z,18.19
2023-05-03T17:12:31.839Z,18.12
2023-05-03T17:14:59.261Z,18.17
2023-05-03T17:17:26.634Z,18.09
2023-05-03T17:19:54.005Z,18.07
2023-05-03T17:22:21.516Z,18.07
2023-05-03T17:24:48.946Z,18.09
2023-05-03T17:27:16.320Z,18.07
2023-05-03T17:29:44.292Z,18.00
2023-05-03T17:32:11.636Z,18.02
2023-05-03T17:34:39.253Z,18.00
2023-05-03T17:37:06.670Z,18.01
2023-05-03T17:39:34.152Z,17.99
2023-05-03T17:42:01.656Z,17.97
2023-05-03T17:44:29.055Z,17.94
2023-05-03T17:46:56.832Z,17.93
2023-05-03T17:49:27.325Z,17.95
2023-05-03T17:51:54.831Z,17.93
2023-05-03T17:54:22.204Z,17.94
2023-05-03T17:56:49.752Z,17.89
2023-05-03T17:59:17.968Z,17.85
2023-05-03T18:01:47.316Z,17.85
2023-05-03T18:04:15.171Z,17.85
2023-05-03T18:06:42.528Z,17.85
2023-05-03T18:09:10.140Z,17.92
2023-05-03T18:11:37.528Z,17.88
2023-05-03T18:14:04.852Z,17.83
2023-05-03T18:16:32.777Z,17.80
2023-05-03T18:19:00.935Z,17.75
2023-05-03T18:21:28.686Z,17.70
2023-05-03T18:23:56.567Z,17.67
2023-05-03T18:26:25.428Z,17.64
2023-05-03T18:28:53.721Z,17.64
2023-05-03T18:31:21.492Z,17.58
2023-05-03T18:33:49.220Z,17.54
2023-05-03T18:36:17.129Z,17.48
2023-05-03T18:38:46.857Z,17.49
2023-05-03T18:41:15.902Z,17.45
2023-05-03T18:43:46.262Z,17.43
2023-05-03T18:46:18.730Z,17.41
2023-05-03T18:48:47.793Z,17.38
2023-05-03T18:51:16.392Z,17.32
2023-05-03T18:53:43.937Z,17.31
2023-05-03T18:56:11.485Z,17.34
2023-05-03T18:58:39.786Z,17.33
2023-05-03T19:01:07.484Z,17.33
2023-05-03T19:03:35.394Z,17.33
2023-05-03T19:06:09.415Z,17.33
2023-05-03T19:08:37.012Z,17.26
2023-05-03T19:11:13.573Z,17.27
2023-05-03T19:13:46.247Z,17.29
2023-05-03T19:16:15.537Z,17.20
2023-05-03T19:18:44.430Z,17.16
2023-05-03T19:21:12.536Z,17.19
2023-05-03T19:23:40.010Z,17.13
2023-05-03T19:26:07.465Z,17.11
2023-05-03T19:28:35.520Z,17.16
2023-05-03T19:31:06.165Z,17.15
2023-05-03T19:33:34.001Z,17.04
2023-05-03T19:36:07.460Z,17.00
2023-05-03T19:38:38.536Z,16.98
2023-05-03T19:41:13.331Z,17.00
2023-05-03T19:43:42.142Z,17.01
2023-05-03T19:46:09.824Z,16.98
2023-05-03T19:48:38.073Z,16.95
2023-05-03T19:51:05.898Z,16.91
2023-05-03T19:53:33.827Z,16.94
2023-05-03T19:56:07.044Z,16.95
2023-05-03T19:58:34.472Z,16.99
2023-05-03T20:01:02.635Z,16.95
2023-05-03T20:03:30.188Z,16.99
2023-05-03T20:06:00.504Z,16.93
2023-05-03T20:09:00.944Z,17.01
2023-05-03T20:11:28.298Z,16.97
2023-05-03T20:13:55.909Z,16.94
2023-05-03T20:16:27.057Z,16.91
2023-05-03T20:18:54.497Z,16.91
2023-05-03T20:21:21.892Z,16.91
2023-05-03T20:23:50.382Z,16.88
2023-05-03T20:26:19.173Z,16.90
2023-05-03T20:28:46.556Z,16.88
2023-05-03T20:31:14.110Z,16.95
2023-05-03T20:33:41.561Z,16.95
2023-05-03T20:36:09.678Z,16.97
2023-05-03T20:38:38.033Z,16.99
2023-05-03T20:41:06.085Z,16.98
2023-05-03T20:43:33.612Z,17.01
2023-05-03T20:46:00.919Z,16.98
2023-05-03T20:48:29.306Z,17.01
2023-05-03T20:50:59.693Z,17.03
2023-05-03T20:53:27.457Z,17.03
2023-05-03T20:56:01.697Z,17.00
2023-05-03T20:58:29.258Z,16.98
2023-05-03T21:00:57.850Z,16.99
2023-05-03T21:03:25.951Z,16.99
2023-05-03T21:05:53.582Z,16.97
2023-05-03T21:08:21.278Z,16.99
2023-05-03T21:10:48.732Z,17.00
2023-05-03T21:13:17.775Z,17.04
2023-05-03T21:15:45.335Z,16.90
2023-05-03T21:18:12.761Z,16.85
2023-05-03T21:20:40.212Z,16.73
2023-05-03T21:23:07.596Z,16.68
2023-05-03T21:25:35.003Z,16.57
2023-05-03T21:28:02.368Z,16.62
2023-05-03T21:30:29.855Z,16.62
2023-05-03T21:32:57.329Z,16.70
2023-05-03T21:35:24.795Z,16.57
2023-05-03T21:37:52.199Z,16.50
2023-05-03T21:40:21.293Z,16.43
2023-05-03T21:42:54.047Z,16.54
2023-05-03T21:45:21.600Z,16.50
2023-05-03T21:47:49.041Z,16.48
2023-05-03T21:50:16.668Z,16.49
2023-05-03T21:52:44.036Z,16.48
2023-05-03T21:55:12.242Z,16.52
2023-05-03T21:57:39.686Z,16.48
2023-05-03T22:00:07.943Z,16.54
2023-05-03T22:02:36.029Z,16.40
2023-05-03T22:05:03.555Z,16.33
2023-05-03T22:07:30.932Z,16.35
2023-05-03T22:09:58.621Z,16.37
2023-05-03T22:12:26.307Z,16.39
2023-05-03T22:14:54.241Z,16.39
2023-05-03T22:17:21.716Z,16.30
2023-05-03T22:19:49.162Z,16.32
2023-05-03T22:22:16.474Z,16.28
2023-05-03T22:24:43.845Z,16.22
2023-05-03T22:27:11.254Z,16.25
2023-05-03T22:29:38.618Z,16.27
2023-05-03T22:32:07.202Z,16.29
2023-05-03T22:34:34.703Z,16.15
2023-05-03T22:37:02.087Z,16.19
2023-05-03T22:39:29.562Z,16.09
2023-05-03T22:41:56.889Z,16.06
2023-05-03T22:44:24.234Z,16.08
2023-05-03T22:46:51.581Z,16.05
2023-05-03T22:49:18.962Z,15.99
2023-05-03T22:51:46.704Z,15.98
2023-05-03T22:54:14.056Z,15.91
2023-05-03T22:56:41.496Z,15.91
2023-05-03T22:59:09.299Z,15.94
2023-05-03T23:01:37.544Z,16.05
2023-05-03T23:04:05.152Z,15.99
2023-05-03T23:06:32.626Z,15.91
2023-05-03T23:09:01.098Z,15.89
2023-05-03T23:11:28.434Z,15.86
2023-05-03T23:13:55.835Z,15.83
2023-05-03T23:16:23.322Z,15.89
2023-05-03T23:18:50.748Z,15.80
2023-05-03T23:21:18.585Z,15.78
2023-05-03T23:23:47.007Z,15.77
2023-05-03T23:26:14.521Z,15.78
2023-05-03T23:28:42.246Z,15.78
2023-05-03T23:31:10.083Z,15.72
2023-05-03T23:33:37.714Z,15.65
2023-05-03T23:36:05.327Z,15.69
2023-05-03T23:38:32.902Z,15.71
2023-05-03T23:41:00.305Z,15.70
2023-05-03T23:43:27.671Z,15.67
2023-05-03T23:45:55.036Z,15.67
2023-05-03T23:48:22.410Z,15.64
2023-05-03T23:50:49.760Z,15.58
2023-05-03T23:53:17.151Z,15.52
2023-05-03T23:55:44.610Z,15.45
2023-05-03T23:58:12.008Z,15.45
